Time;durP1;ratioP1;P1;durP2;ratioP2;P2;SDS_P1;SDS_P2;PMS_P1;PMS_P2;Temp;Humidity;BMP_temperature;BMP_pressure;BME280_temperature;BME280_humidity;BME280_pressure;Samples;Min_cycle;Max_cycle;Signal;HPM_P1;HPM_P2
2021/10/15 00:02:19;;;;;;;;;;;4.90;99.90;;;;;;5071037;28;19931;-73
2021/10/15 00:04:50;;;;;;;;;;;4.80;99.90;;;;;;5072197;28;20014;-72
2021/10/15 00:07:22;;;;;;;;;;;4.80;99.90;;;;;;5072634;28;19924;-73
2021/10/15 00:09:54;;;;;;;;;;;4.80;99.90;;;;;;5089094;28;20028;-73
2021/10/15 00:12:26;;;;;;;;;;;4.70;99.90;;;;;;5072254;28;19930;-72
2021/10/15 00:14:58;;;;;;;;;;;4.70;99.90;;;;;;5088438;28;20371;-72
2021/10/15 00:17:25;;;;;;;;;;;4.70;99.90;;;;;;5071160;28;20395;-72
2021/10/15 00:19:51;;;;;;;;;;;4.60;99.90;;;;;;5070509;28;19924;-73
2021/10/15 00:22:18;;;;;;;;;;;4.60;99.90;;;;;;5072086;28;20442;-73
2021/10/15 00:24:45;;;;;;;;;;;4.60;99.90;;;;;;5071698;28;20035;-72
2021/10/15 00:27:12;;;;;;;;;;;4.60;99.90;;;;;;5104844;28;20354;-73
2021/10/15 00:29:44;;;;;;;;;;;4.50;99.90;;;;;;5088661;28;20438;-72
2021/10/15 00:32:16;;;;;;;;;;;4.50;99.90;;;;;;5072006;28;20021;-73
2021/10/15 00:34:43;;;;;;;;;;;4.50;99.90;;;;;;5070426;28;20015;-73
2021/10/15 00:37:18;;;;;;;;;;;4.50;99.90;;;;;;5070886;28;19928;-73
2021/10/15 00:39:50;;;;;;;;;;;4.40;99.90;;;;;;5104922;28;20466;-73
2021/10/15 00:42:17;;;;;;;;;;;4.40;99.90;;;;;;5070630;28;19932;-73
2021/10/15 00:44:49;;;;;;;;;;;4.40;99.90;;;;;;5070445;28;19928;-73
2021/10/15 00:47:21;;;;;;;;;;;4.30;99.90;;;;;;5072056;28;19931;-73
2021/10/15 00:49:53;;;;;;;;;;;4.30;99.90;;;;;;5071552;28;19928;-72
2021/10/15 00:52:26;;;;;;;;;;;4.30;99.90;;;;;;5070715;28;19928;-73
2021/10/15 00:54:53;;;;;;;;;;;4.30;99.90;;;;;;5070609;28;19931;-72
2021/10/15 00:57:25;;;;;;;;;;;4.30;99.90;;;;;;5070858;28;19929;-73
2021/10/15 00:59:57;;;;;;;;;;;4.20;99.90;;;;;;5088308;28;19930;-73
2021/10/15 01:02:28;;;;;;;;;;;4.20;99.90;;;;;;5070019;28;20323;-73
2021/10/15 01:04:56;;;;;;;;;;;4.10;99.90;;;;;;5069797;28;19924;-73
2021/10/15 01:07:23;;;;;;;;;;;4.10;99.90;;;;;;5103824;28;19935;-72
2021/10/15 01:09:51;;;;;;;;;;;4.10;99.90;;;;;;5071269;28;19928;-73
2021/10/15 01:12:20;;;;;;;;;;;4.10;99.90;;;;;;5069829;28;20364;-73
2021/10/15 01:14:47;;;;;;;;;;;4.00;99.90;;;;;;5069307;28;19924;-73
2021/10/15 01:17:19;;;;;;;;;;;4.10;99.90;;;;;;5070007;28;19925;-73
2021/10/15 01:19:50;;;;;;;;;;;4.00;99.90;;;;;;5070191;28;19963;-73
2021/10/15 01:22:26;;;;;;;;;;;4.00;99.90;;;;;;5087897;28;19925;-73
2021/10/15 01:24:59;;;;;;;;;;;4.00;99.90;;;;;;5069981;28;19925;-73
2021/10/15 01:27:31;;;;;;;;;;;4.00;99.90;;;;;;5071504;28;19925;-72
2021/10/15 01:30:03;;;;;;;;;;;4.10;99.90;;;;;;5069760;28;19928;-73
2021/10/15 01:32:30;;;;;;;;;;;4.10;99.90;;;;;;5086612;28;20303;-72
2021/10/15 01:35:02;;;;;;;;;;;4.10;99.90;;;;;;5069574;28;19928;-72
2021/10/15 01:37:29;;;;;;;;;;;4.10;99.90;;;;;;5069806;28;19928;-73
2021/10/15 01:40:00;;;;;;;;;;;4.00;99.90;;;;;;5070182;28;19925;-73
2021/10/15 01:45:18;;;;;;;;;;;4.00;99.90;;;;;;5069844;28;19925;-72
2021/10/15 01:47:50;;;;;;;;;;;4.00;99.90;;;;;;5070119;28;19928;-72
2021/10/15 01:50:19;;;;;;;;;;;4.00;99.90;;;;;;5070010;28;19967;-73
2021/10/15 01:52:46;;;;;;;;;;;3.90;99.90;;;;;;5069931;28;19964;-72
2021/10/15 01:55:13;;;;;;;;;;;3.90;99.90;;;;;;5071018;28;19924;-73
2021/10/15 01:57:45;;;;;;;;;;;3.90;99.90;;;;;;5071377;28;20295;-73
2021/10/15 02:00:17;;;;;;;;;;;3.80;99.90;;;;;;5071335;28;19947;-73
2021/10/15 02:02:44;;;;;;;;;;;3.80;99.90;;;;;;5071956;28;19925;-73
2021/10/15 02:05:17;;;;;;;;;;;3.80;99.90;;;;;;5090993;28;19928;-73
2021/10/15 02:07:48;;;;;;;;;;;3.70;99.90;;;;;;5091173;28;19924;-72
2021/10/15 02:10:17;;;;;;;;;;;3.70;99.90;;;;;;5073426;28;19929;-73
2021/10/15 02:12:49;;;;;;;;;;;3.70;99.90;;;;;;5074642;28;20383;-72
2021/10/15 02:15:22;;;;;;;;;;;3.70;99.90;;;;;;5073067;28;19928;-73
2021/10/15 02:17:49;;;;;;;;;;;3.60;99.90;;;;;;5073338;28;20276;-73
2021/10/15 02:20:18;;;;;;;;;;;3.60;99.90;;;;;;5074493;28;19977;-72
2021/10/15 02:22:45;;;;;;;;;;;3.60;99.90;;;;;;5073356;28;19931;-73
2021/10/15 02:25:13;;;;;;;;;;;3.60;99.90;;;;;;5056332;28;19928;-72
2021/10/15 02:27:45;;;;;;;;;;;3.60;99.90;;;;;;5073082;28;19931;-72
2021/10/15 02:30:18;;;;;;;;;;;3.60;99.90;;;;;;5074334;28;19924;-72
2021/10/15 02:32:50;;;;;;;;;;;3.50;99.90;;;;;;5090931;28;19924;-73
2021/10/15 02:35:17;;;;;;;;;;;3.50;99.90;;;;;;5072847;28;19928;-73
2021/10/15 02:37:49;;;;;;;;;;;3.50;99.90;;;;;;5073098;28;20415;-73
2021/10/15 02:40:21;;;;;;;;;;;3.50;99.90;;;;;;5090747;28;20299;-73
2021/10/15 02:42:47;;;;;;;;;;;3.50;99.90;;;;;;5072594;28;19977;-73
2021/10/15 02:45:21;;;;;;;;;;;3.40;99.90;;;;;;5072726;28;19924;-72
2021/10/15 02:47:48;;;;;;;;;;;3.40;99.90;;;;;;5106518;28;19931;-72
2021/10/15 02:50:20;;;;;;;;;;;3.40;99.90;;;;;;5072709;28;19931;-73
2021/10/15 02:52:52;;;;;;;;;;;3.40;99.90;;;;;;5073779;28;19928;-73
2021/10/15 02:55:19;;;;;;;;;;;3.40;99.90;;;;;;5073799;28;19931;-72
2021/10/15 02:57:51;;;;;;;;;;;3.40;99.90;;;;;;5072645;28;19925;-73
2021/10/15 03:00:23;;;;;;;;;;;3.40;99.90;;;;;;5090119;28;19936;-73
2021/10/15 03:02:55;;;;;;;;;;;3.40;99.90;;;;;;5090138;28;19931;-72
2021/10/15 03:05:22;;;;;;;;;;;3.30;99.90;;;;;;5106024;28;19950;-72
2021/10/15 03:07:49;;;;;;;;;;;3.30;99.90;;;;;;5072271;28;20391;-73
2021/10/15 03:10:16;;;;;;;;;;;3.30;99.90;;;;;;5072225;28;20322;-73
2021/10/15 03:12:48;;;;;;;;;;;3.30;99.90;;;;;;5073011;28;19924;-73
2021/10/15 03:15:19;;;;;;;;;;;3.30;99.90;;;;;;5105715;28;19949;-72
2021/10/15 03:17:51;;;;;;;;;;;3.30;99.90;;;;;;5072369;28;20391;-72
2021/10/15 03:20:18;;;;;;;;;;;3.30;99.90;;;;;;5067436;28;19971;-73
2021/10/15 03:22:49;;;;;;;;;;;3.20;99.90;;;;;;5068627;28;19924;-73
2021/10/15 03:25:16;;;;;;;;;;;3.20;99.90;;;;;;5104187;28;20387;-74
2021/10/15 03:27:48;;;;;;;;;;;3.20;99.90;;;;;;5105036;28;19924;-72
2021/10/15 03:30:20;;;;;;;;;;;3.20;99.90;;;;;;5071075;28;19929;-73
2021/10/15 03:32:52;;;;;;;;;;;3.10;99.90;;;;;;5070820;28;20326;-72
2021/10/15 03:35:19;;;;;;;;;;;3.10;99.90;;;;;;5070438;28;19925;-73
2021/10/15 03:37:51;;;;;;;;;;;3.10;99.90;;;;;;5071370;28;19947;-73
2021/10/15 03:40:22;;;;;;;;;;;3.00;99.90;;;;;;5049229;28;20418;-73
2021/10/15 03:42:54;;;;;;;;;;;3.00;99.90;;;;;;5085912;28;19931;-72
2021/10/15 03:45:26;;;;;;;;;;;3.00;99.90;;;;;;5071649;28;19936;-74
2021/10/15 03:47:58;;;;;;;;;;;3.00;99.90;;;;;;5072958;28;20342;-73
2021/10/15 03:50:24;;;;;;;;;;;3.60;99.90;;;;;;5072511;28;19924;-73
2021/10/15 03:52:56;;;;;;;;;;;3.80;99.90;;;;;;5070487;28;20002;-73
2021/10/15 03:55:24;;;;;;;;;;;3.80;99.90;;;;;;5068541;28;20411;-73
2021/10/15 03:57:51;;;;;;;;;;;3.70;99.90;;;;;;5070367;28;19924;-72
2021/10/15 04:00:18;;;;;;;;;;;3.60;99.90;;;;;;5071034;28;19940;-73
2021/10/15 04:02:46;;;;;;;;;;;3.50;99.90;;;;;;5087729;28;19929;-72
2021/10/15 04:05:17;;;;;;;;;;;3.40;99.90;;;;;;5070634;28;19931;-73
2021/10/15 04:07:49;;;;;;;;;;;3.30;99.90;;;;;;5088321;28;19932;-74
2021/10/15 04:10:16;;;;;;;;;;;3.20;99.90;;;;;;5070639;28;19935;-75
2021/10/15 04:12:48;;;;;;;;;;;3.10;99.90;;;;;;5072588;28;19924;-72
2021/10/15 04:15:19;;;;;;;;;;;3.10;99.90;;;;;;5077378;28;20386;-72
2021/10/15 04:17:51;;;;;;;;;;;3.00;99.90;;;;;;5078297;28;19924;-73
2021/10/15 04:20:18;;;;;;;;;;;3.00;99.90;;;;;;5104684;28;19932;-72
2021/10/15 04:22:50;;;;;;;;;;;3.00;99.90;;;;;;5087404;28;19924;-72
2021/10/15 04:25:17;;;;;;;;;;;3.00;99.90;;;;;;5068631;28;19939;-72
2021/10/15 04:27:49;;;;;;;;;;;2.90;99.90;;;;;;5089422;28;19924;-72
2021/10/15 04:30:15;;;;;;;;;;;2.90;99.90;;;;;;5090010;28;19932;-71
2021/10/15 04:32:47;;;;;;;;;;;2.90;99.90;;;;;;5089722;28;19924;-71
2021/10/15 04:35:19;;;;;;;;;;;2.90;99.90;;;;;;5084262;28;19924;-72
2021/10/15 04:37:51;;;;;;;;;;;2.90;99.90;;;;;;5079444;28;19925;-72
2021/10/15 04:40:22;;;;;;;;;;;2.90;99.90;;;;;;5083899;28;19928;-72
2021/10/15 04:42:54;;;;;;;;;;;2.80;99.90;;;;;;5069589;28;20340;-72
2021/10/15 04:45:21;;;;;;;;;;;2.80;99.90;;;;;;5069048;28;19928;-71
2021/10/15 04:47:53;;;;;;;;;;;2.80;99.90;;;;;;5087139;28;19928;-71
2021/10/15 04:50:19;;;;;;;;;;;2.80;99.90;;;;;;5070733;28;19943;-71
2021/10/15 04:52:52;;;;;;;;;;;2.90;99.90;;;;;;5069169;28;19928;-71
2021/10/15 04:55:24;;;;;;;;;;;2.90;99.90;;;;;;5070093;28;19924;-72
2021/10/15 04:58:00;;;;;;;;;;;2.90;99.90;;;;;;5078919;28;19928;-71
2021/10/15 05:00:31;;;;;;;;;;;2.90;99.90;;;;;;5083714;28;19927;-72
2021/10/15 05:02:58;;;;;;;;;;;2.80;99.90;;;;;;5076161;28;19928;-72
2021/10/15 05:05:29;;;;;;;;;;;2.80;99.90;;;;;;5120913;28;20363;-71
2021/10/15 05:08:01;;;;;;;;;;;2.80;99.90;;;;;;5094115;28;19931;-71
2021/10/15 05:10:33;;;;;;;;;;;2.80;99.90;;;;;;5080003;28;20290;-71
2021/10/15 05:13:00;;;;;;;;;;;2.70;99.90;;;;;;5118715;28;19924;-71
2021/10/15 05:15:31;;;;;;;;;;;2.70;99.90;;;;;;5071196;28;19925;-71
2021/10/15 05:18:03;;;;;;;;;;;2.70;99.90;;;;;;5075332;28;20310;-71
2021/10/15 05:20:30;;;;;;;;;;;2.60;99.90;;;;;;5075676;28;19928;-71
2021/10/15 05:22:56;;;;;;;;;;;2.60;99.90;;;;;;5089727;28;19927;-71
2021/10/15 05:25:23;;;;;;;;;;;2.60;99.90;;;;;;5089273;28;19935;-71
2021/10/15 05:27:50;;;;;;;;;;;2.60;99.90;;;;;;5091338;28;20298;-71
2021/10/15 05:30:17;;;;;;;;;;;2.60;99.90;;;;;;5086461;28;20353;-71
2021/10/15 05:32:44;;;;;;;;;;;2.50;99.90;;;;;;5112100;28;20643;-71
2021/10/15 05:35:10;;;;;;;;;;;2.50;99.90;;;;;;5086115;28;19924;-71
2021/10/15 05:37:37;;;;;;;;;;;2.70;99.90;;;;;;5092757;28;19928;-71
2021/10/15 05:40:04;;;;;;;;;;;2.90;99.90;;;;;;5094517;28;19924;-72
2021/10/15 05:42:31;;;;;;;;;;;2.90;99.90;;;;;;5094593;28;20275;-71
2021/10/15 05:44:58;;;;;;;;;;;2.90;99.90;;;;;;5094116;28;19924;-71
2021/10/15 05:47:25;;;;;;;;;;;2.80;99.90;;;;;;5094304;28;19924;-71
2021/10/15 05:49:58;;;;;;;;;;;2.70;99.90;;;;;;5094393;28;19928;-71
2021/10/15 05:52:34;;;;;;;;;;;2.70;99.90;;;;;;5094224;28;19924;-71
2021/10/15 06:00:08;;;;;;;;;;;2.60;99.90;;;;;;5095592;28;19924;-71
2021/10/15 06:02:42;;;;;;;;;;;2.60;99.90;;;;;;5093942;28;19931;-71
2021/10/15 06:16:13;;;;;;;;;;;2.70;99.90;;;;;;5093667;28;20290;-71
2021/10/15 06:18:41;;;;;;;;;;;2.70;99.90;;;;;;5093895;28;20298;-71
2021/10/15 06:21:08;;;;;;;;;;;2.70;99.90;;;;;;5093484;28;19928;-71
2021/10/15 06:23:34;;;;;;;;;;;2.70;99.90;;;;;;5093572;28;19933;-71
2021/10/15 06:26:01;;;;;;;;;;;2.70;99.90;;;;;;5093278;28;19924;-71
2021/10/15 06:28:28;;;;;;;;;;;2.70;99.90;;;;;;5093555;28;19931;-71
2021/10/15 06:31:00;;;;;;;;;;;2.70;99.90;;;;;;5093606;28;20456;-71
2021/10/15 06:33:27;;;;;;;;;;;2.70;99.90;;;;;;5076528;28;19932;-71
2021/10/15 06:35:59;;;;;;;;;;;2.70;99.90;;;;;;5093080;28;19962;-71
2021/10/15 06:38:25;;;;;;;;;;;2.70;99.90;;;;;;5093540;28;20017;-71
2021/10/15 06:40:52;;;;;;;;;;;2.70;99.90;;;;;;5093139;28;19924;-72
2021/10/15 06:43:19;;;;;;;;;;;2.70;99.90;;;;;;5094293;28;19924;-71
2021/10/15 06:45:46;;;;;;;;;;;2.70;99.90;;;;;;5093012;28;19924;-71
2021/10/15 06:48:12;;;;;;;;;;;2.80;99.90;;;;;;5092280;28;20006;-71
2021/10/15 06:50:44;;;;;;;;;;;2.80;99.90;;;;;;5093151;28;19931;-71
2021/10/15 06:53:16;;;;;;;;;;;2.90;99.90;;;;;;5094183;28;19977;-71
2021/10/15 06:55:43;;;;;;;;;;;3.00;99.90;;;;;;5092547;28;19931;-71
2021/10/15 06:58:09;;;;;;;;;;;3.00;99.90;;;;;;5092987;28;19924;-72
2021/10/15 07:00:41;;;;;;;;;;;3.00;99.90;;;;;;5092945;28;20310;-72
2021/10/15 07:03:18;;;;;;;;;;;3.10;99.90;;;;;;5092611;28;19924;-71
2021/10/15 07:05:46;;;;;;;;;;;3.10;99.90;;;;;;5092434;28;20316;-71
2021/10/15 07:08:17;;;;;;;;;;;3.30;99.90;;;;;;5092853;28;20422;-71
2021/10/15 07:10:44;;;;;;;;;;;3.60;99.90;;;;;;5080095;28;20379;-72
2021/10/15 07:13:16;;;;;;;;;;;3.70;99.90;;;;;;5089521;28;19946;-72
2021/10/15 07:15:46;;;;;;;;;;;3.80;99.90;;;;;;5069687;28;19924;-71
2021/10/15 07:18:13;;;;;;;;;;;3.90;99.90;;;;;;5089952;28;19924;-72
2021/10/15 07:20:42;;;;;;;;;;;3.90;99.90;;;;;;5086678;28;20198;-72
2021/10/15 07:23:14;;;;;;;;;;;4.00;99.90;;;;;;5093306;28;20379;-72
2021/10/15 07:25:46;;;;;;;;;;;4.00;99.90;;;;;;5091875;28;20261;-72
2021/10/15 07:28:18;;;;;;;;;;;4.10;99.90;;;;;;5092167;28;20026;-72
2021/10/15 07:30:50;;;;;;;;;;;4.20;99.90;;;;;;5092429;28;20399;-72
2021/10/15 07:33:17;;;;;;;;;;;4.30;99.90;;;;;;5092063;28;19946;-72
2021/10/15 07:35:43;;;;;;;;;;;4.40;99.90;;;;;;5093095;28;19924;-71
2021/10/15 07:38:15;;;;;;;;;;;4.50;99.90;;;;;;5092018;28;20026;-72
2021/10/15 07:40:42;;;;;;;;;;;4.60;99.90;;;;;;5092212;28;19930;-72
2021/10/15 07:43:09;;;;;;;;;;;4.60;99.90;;;;;;5091742;28;20359;-72
2021/10/15 07:45:41;;;;;;;;;;;4.70;99.90;;;;;;5109411;27;19928;-72
2021/10/15 07:48:07;;;;;;;;;;;4.90;99.90;;;;;;5093083;28;19931;-72
2021/10/15 07:50:34;;;;;;;;;;;5.00;99.90;;;;;;5086442;28;19932;-71
2021/10/15 07:53:01;;;;;;;;;;;5.10;99.90;;;;;;5071501;28;19932;-72
2021/10/15 07:55:33;;;;;;;;;;;5.20;99.90;;;;;;5075057;28;19977;-71
2021/10/15 07:58:00;;;;;;;;;;;5.40;99.90;;;;;;5074638;28;19928;-72
2021/10/15 08:00:32;;;;;;;;;;;5.50;99.90;;;;;;5084043;28;19934;-71
2021/10/15 08:03:04;;;;;;;;;;;5.60;99.90;;;;;;5075310;28;19990;-71
2021/10/15 08:05:35;;;;;;;;;;;5.60;99.90;;;;;;5070231;28;19967;-71
2021/10/15 08:08:07;;;;;;;;;;;5.70;99.90;;;;;;5087644;28;19924;-71
2021/10/15 08:10:39;;;;;;;;;;;5.80;99.90;;;;;;5070488;28;19933;-71
2021/10/15 08:13:06;;;;;;;;;;;5.90;99.90;;;;;;5071223;28;20511;-71
2021/10/15 08:15:38;;;;;;;;;;;6.00;99.90;;;;;;5055520;28;19924;-71
2021/10/15 08:18:09;;;;;;;;;;;6.10;99.90;;;;;;5074196;28;19935;-72
2021/10/15 08:20:36;;;;;;;;;;;6.20;99.90;;;;;;5091682;28;19924;-71
2021/10/15 08:23:08;;;;;;;;;;;6.30;99.90;;;;;;5090364;28;19974;-71
2021/10/15 08:25:35;;;;;;;;;;;6.50;99.90;;;;;;5089811;28;19924;-72
2021/10/15 08:28:02;;;;;;;;;;;6.70;99.90;;;;;;5089888;28;19973;-71
2021/10/15 08:30:35;;;;;;;;;;;6.90;99.90;;;;;;5089638;28;20232;-71
2021/10/15 08:33:07;;;;;;;;;;;7.10;99.90;;;;;;5090442;28;19932;-71
2021/10/15 08:35:39;;;;;;;;;;;7.30;99.90;;;;;;5083872;28;20430;-71
2021/10/15 08:38:06;;;;;;;;;;;7.40;99.90;;;;;;5084014;28;19931;-71
2021/10/15 08:40:37;;;;;;;;;;;7.60;99.90;;;;;;5091583;28;19924;-72
2021/10/15 08:43:06;;;;;;;;;;;7.70;99.90;;;;;;5091256;28;19924;-71
2021/10/15 08:45:37;;;;;;;;;;;7.80;99.90;;;;;;5089474;28;20328;-71
2021/10/15 08:48:04;;;;;;;;;;;7.90;99.90;;;;;;5090199;28;20448;-72
2021/10/15 08:50:36;;;;;;;;;;;8.00;99.90;;;;;;5064381;28;19924;-71
2021/10/15 08:53:08;;;;;;;;;;;8.10;99.90;;;;;;5089806;28;19931;-72
2021/10/15 08:55:39;;;;;;;;;;;8.20;99.90;;;;;;5086387;28;19950;-71
2021/10/15 08:58:11;;;;;;;;;;;8.30;99.90;;;;;;5089433;28;19955;-72
2021/10/15 09:00:43;;;;;;;;;;;8.40;99.90;;;;;;5090109;28;19990;-72
2021/10/15 09:03:10;;;;;;;;;;;8.40;99.90;;;;;;5090001;28;19951;-72
2021/10/15 09:05:50;;;;;;;;;;;8.40;99.90;;;;;;5093984;28;19930;-72
2021/10/15 09:08:23;;;;;;;;;;;8.40;99.90;;;;;;5070892;28;20264;-72
2021/10/15 09:10:54;;;;;;;;;;;8.50;99.90;;;;;;5070150;28;19924;-71
2021/10/15 09:13:21;;;;;;;;;;;8.60;99.90;;;;;;5073733;28;19931;-72
2021/10/15 09:15:58;;;;;;;;;;;8.70;99.90;;;;;;5073068;28;20272;-72
2021/10/15 09:18:31;;;;;;;;;;;8.80;99.90;;;;;;5091367;28;19929;-71
2021/10/15 09:21:13;;;;;;;;;;;8.90;99.90;;;;;;5073637;28;19995;-72
2021/10/15 09:23:42;;;;;;;;;;;9.00;99.90;;;;;;5081552;28;20290;-71
2021/10/15 09:26:10;;;;;;;;;;;9.10;99.90;;;;;;5088106;28;20127;-71
2021/10/15 09:28:43;;;;;;;;;;;9.20;99.90;;;;;;5085343;28;20015;-71
2021/10/15 09:31:16;;;;;;;;;;;9.20;99.90;;;;;;5075532;28;19931;-72
2021/10/15 09:33:57;;;;;;;;;;;9.30;99.90;;;;;;5106839;27;19964;-72
2021/10/15 09:36:29;;;;;;;;;;;9.50;99.90;;;;;;5069528;28;19924;-71
2021/10/15 09:39:20;;;;;;;;;;;9.60;99.90;;;;;;5070811;28;19934;-72
2021/10/15 09:41:47;;;;;;;;;;;9.80;99.90;;;;;;5073397;28;20466;-72
2021/10/15 09:44:32;;;;;;;;;;;10.00;99.90;;;;;;5053860;28;19931;-71
2021/10/15 09:47:16;;;;;;;;;;;10.10;99.90;;;;;;5036698;28;20104;-72
2021/10/15 09:50:00;;;;;;;;;;;10.30;99.90;;;;;;5053318;28;20440;-71
2021/10/15 09:52:35;;;;;;;;;;;10.30;99.90;;;;;;5086994;28;19932;-71
2021/10/15 09:55:15;;;;;;;;;;;10.30;99.90;;;;;;5054343;28;19932;-71
2021/10/15 09:57:44;;;;;;;;;;;10.50;99.90;;;;;;5053578;28;19932;-72
2021/10/15 10:00:18;;;;;;;;;;;10.60;99.90;;;;;;5053701;28;19979;-71
2021/10/15 10:02:45;;;;;;;;;;;10.60;99.90;;;;;;5069947;28;19925;-72
2021/10/15 10:05:18;;;;;;;;;;;10.60;99.90;;;;;;5052846;28;20023;-71
2021/10/15 10:07:51;;;;;;;;;;;10.70;99.90;;;;;;5053428;28;19936;-71
2021/10/15 10:10:23;;;;;;;;;;;10.70;99.90;;;;;;5053286;28;19932;-73
2021/10/15 10:12:51;;;;;;;;;;;10.70;99.90;;;;;;5054406;28;19928;-72
2021/10/15 10:15:19;;;;;;;;;;;10.70;99.90;;;;;;5052643;28;20284;-72
2021/10/15 10:20:52;;;;;;;;;;;10.80;99.90;;;;;;5052981;28;19970;-72
2021/10/15 10:23:30;;;;;;;;;;;11.00;99.90;;;;;;5051509;28;19979;-72
2021/10/15 10:26:04;;;;;;;;;;;11.00;99.90;;;;;;5052182;28;19925;-72
2021/10/15 10:28:31;;;;;;;;;;;11.10;99.90;;;;;;5086316;28;19929;-72
2021/10/15 10:31:06;;;;;;;;;;;11.20;99.90;;;;;;5052619;28;19925;-72
2021/10/15 10:33:56;;;;;;;;;;;11.30;99.90;;;;;;5054020;28;19932;-72
2021/10/15 10:36:29;;;;;;;;;;;11.40;99.90;;;;;;5051536;28;19962;-72
2021/10/15 10:39:16;;;;;;;;;;;11.50;99.90;;;;;;5053909;28;19925;-72
2021/10/15 10:42:00;;;;;;;;;;;11.60;99.90;;;;;;5052698;28;19951;-72
2021/10/15 10:44:34;;;;;;;;;;;11.70;99.90;;;;;;5051987;28;20418;-71
2021/10/15 10:47:06;;;;;;;;;;;11.80;99.90;;;;;;5035786;28;19948;-74
2021/10/15 10:49:33;;;;;;;;;;;11.90;99.90;;;;;;5053544;28;19931;-72
2021/10/15 10:52:07;;;;;;;;;;;12.10;99.90;;;;;;5052198;28;19925;-72
2021/10/15 10:54:40;;;;;;;;;;;12.20;99.90;;;;;;5051886;28;19925;-72
2021/10/15 10:57:14;;;;;;;;;;;12.30;99.90;;;;;;5053544;28;19924;-71
2021/10/15 10:59:46;;;;;;;;;;;12.30;99.90;;;;;;5053606;28;19971;-73
2021/10/15 11:02:16;;;;;;;;;;;12.40;99.90;;;;;;5052250;28;19925;-72
2021/10/15 11:04:56;;;;;;;;;;;12.50;99.90;;;;;;5051950;28;19925;-72
2021/10/15 11:07:24;;;;;;;;;;;12.50;99.90;;;;;;5051714;28;20287;-72
2021/10/15 11:10:03;;;;;;;;;;;12.60;99.90;;;;;;5052289;28;20035;-72
2021/10/15 11:12:30;;;;;;;;;;;12.60;99.90;;;;;;5068970;28;19969;-71
2021/10/15 11:15:09;;;;;;;;;;;12.70;99.90;;;;;;5052534;28;19929;-72
2021/10/15 11:17:47;;;;;;;;;;;12.80;99.90;;;;;;5053677;28;19925;-71
2021/10/15 11:20:17;;;;;;;;;;;12.80;99.90;;;;;;5068278;28;19978;-72
2021/10/15 11:22:49;;;;;;;;;;;12.90;99.90;;;;;;5051763;28;20330;-72
2021/10/15 11:25:16;;;;;;;;;;;12.90;99.90;;;;;;5050949;28;19931;-71
2021/10/15 11:27:52;;;;;;;;;;;13.00;99.90;;;;;;5051393;28;19932;-72
2021/10/15 11:30:26;;;;;;;;;;;13.10;99.90;;;;;;5051310;28;19924;-72
2021/10/15 11:32:53;;;;;;;;;;;13.20;99.90;;;;;;5051091;28;19975;-72
2021/10/15 11:35:32;;;;;;;;;;;13.30;99.90;;;;;;5050563;28;19929;-72
2021/10/15 11:38:07;;;;;;;;;;;13.40;99.90;;;;;;5051268;28;19924;-73
2021/10/15 11:40:43;;;;;;;;;;;13.50;99.90;;;;;;5035299;28;19925;-72
2021/10/15 11:43:12;;;;;;;;;;;13.50;99.90;;;;;;5071707;28;20020;-71
2021/10/15 11:45:45;;;;;;;;;;;13.60;99.90;;;;;;5091435;28;19951;-72
2021/10/15 11:48:21;;;;;;;;;;;13.70;99.90;;;;;;5091965;28;20382;-74
2021/10/15 11:50:57;;;;;;;;;;;13.80;99.90;;;;;;5071648;28;19978;-72
2021/10/15 11:53:40;;;;;;;;;;;13.80;99.90;;;;;;5090950;28;19931;-73
2021/10/15 11:56:14;;;;;;;;;;;13.80;99.90;;;;;;5090731;28;19935;-72
2021/10/15 11:58:50;;;;;;;;;;;13.90;99.90;;;;;;5092530;28;20276;-72
2021/10/15 12:01:28;;;;;;;;;;;14.00;99.90;;;;;;5091817;28;19977;-72
2021/10/15 12:04:01;;;;;;;;;;;14.00;99.90;;;;;;5091053;28;19924;-72
2021/10/15 12:06:38;;;;;;;;;;;14.00;99.90;;;;;;5090927;28;19924;-72
2021/10/15 12:09:11;;;;;;;;;;;14.10;99.90;;;;;;5074052;28;19924;-71
2021/10/15 12:11:45;;;;;;;;;;;14.20;99.90;;;;;;5092081;28;19928;-71
2021/10/15 12:14:19;;;;;;;;;;;14.30;99.90;;;;;;5090202;28;19924;-72
2021/10/15 12:16:56;;;;;;;;;;;14.30;99.90;;;;;;5091168;28;19977;-72
2021/10/15 12:19:31;;;;;;;;;;;14.40;99.90;;;;;;5090916;28;20382;-72
2021/10/15 12:22:10;;;;;;;;;;;14.50;99.90;;;;;;5084142;28;19928;-72
2021/10/15 12:24:38;;;;;;;;;;;14.60;99.90;;;;;;5069582;28;19977;-72
2021/10/15 12:27:13;;;;;;;;;;;14.70;99.90;;;;;;5070030;28;19925;-72
2021/10/15 12:29:46;;;;;;;;;;;14.80;99.90;;;;;;5069298;28;19935;-73
2021/10/15 12:32:18;;;;;;;;;;;14.80;99.90;;;;;;5071473;28;19954;-72
2021/10/15 12:34:54;;;;;;;;;;;14.80;99.90;;;;;;5070186;28;19924;-72
2021/10/15 12:37:45;;;;;;;;;;;14.70;99.90;;;;;;5054313;28;19925;-72
2021/10/15 12:40:12;;;;;;;;;;;14.70;99.90;;;;;;5071733;28;19934;-73
2021/10/15 12:42:39;;;;;;;;;;;14.80;99.90;;;;;;5070244;28;20379;-72
2021/10/15 12:45:13;;;;;;;;;;;14.80;99.90;;;;;;5071166;28;19982;-72
2021/10/15 12:47:54;;;;;;;;;;;14.90;99.90;;;;;;5069649;28;19928;-72
2021/10/15 12:50:27;;;;;;;;;;;14.90;99.90;;;;;;5070614;28;19928;-71
2021/10/15 12:52:55;;;;;;;;;;;15.00;99.90;;;;;;5070194;28;20383;-72
2021/10/15 12:55:28;;;;;;;;;;;15.00;99.90;;;;;;5070082;28;19924;-72
2021/10/15 12:58:01;;;;;;;;;;;15.10;99.90;;;;;;5070216;28;20449;-72
2021/10/15 13:01:05;;;;;;;;;;;15.00;99.90;;;;;;5070157;28;19924;-73
2021/10/15 13:03:46;;;;;;;;;;;15.10;99.90;;;;;;5019325;28;19924;-72
2021/10/15 13:06:18;;;;;;;;;;;15.10;99.90;;;;;;5069568;28;19932;-73
2021/10/15 13:08:51;;;;;;;;;;;15.10;99.90;;;;;;5054151;28;19931;-73
2021/10/15 13:11:24;;;;;;;;;;;15.10;99.90;;;;;;5070115;28;19974;-72
2021/10/15 13:13:56;;;;;;;;;;;15.10;99.90;;;;;;5070204;28;19924;-73
2021/10/15 13:16:23;;;;;;;;;;;15.20;99.90;;;;;;5069672;28;19928;-73
2021/10/15 13:18:50;;;;;;;;;;;15.20;99.90;;;;;;5070175;28;19939;-72
2021/10/15 13:21:22;;;;;;;;;;;15.20;99.90;;;;;;5069993;28;19925;-72
2021/10/15 13:23:53;;;;;;;;;;;15.30;99.90;;;;;;5069900;28;19978;-73
2021/10/15 13:26:20;;;;;;;;;;;15.50;99.90;;;;;;5070669;28;20358;-73
2021/10/15 13:28:52;;;;;;;;;;;15.60;99.90;;;;;;5054054;28;20023;-73
2021/10/15 13:31:24;;;;;;;;;;;15.40;99.90;;;;;;5075217;28;19928;-72
2021/10/15 13:33:51;;;;;;;;;;;15.50;99.90;;;;;;5066281;28;19933;-72
2021/10/15 13:36:24;;;;;;;;;;;15.50;99.90;;;;;;5082104;28;19935;-72
2021/10/15 13:38:56;;;;;;;;;;;15.50;99.90;;;;;;5075034;28;19929;-73
2021/10/15 13:47:19;;;;;;;;;;;15.60;99.90;;;;;;5081797;28;19993;-72
2021/10/15 13:49:51;;;;;;;;;;;15.60;99.90;;;;;;5085445;28;19924;-73
2021/10/15 13:52:24;;;;;;;;;;;15.60;99.90;;;;;;5097499;28;20310;-73
2021/10/15 13:54:55;;;;;;;;;;;15.60;99.90;;;;;;5072928;28;19924;-73
2021/10/15 13:57:27;;;;;;;;;;;15.50;99.90;;;;;;5053251;28;19931;-73
2021/10/15 14:00:08;;;;;;;;;;;15.50;99.90;;;;;;5072988;28;19931;-73
2021/10/15 14:02:51;;;;;;;;;;;15.50;99.90;;;;;;5070546;28;19924;-73
2021/10/15 14:05:23;;;;;;;;;;;15.50;99.90;;;;;;5069783;28;19929;-73
2021/10/15 14:07:50;;;;;;;;;;;15.60;99.90;;;;;;5072261;28;20417;-72
2021/10/15 14:10:17;;;;;;;;;;;15.60;99.90;;;;;;5074114;28;19994;-73
2021/10/15 14:12:50;;;;;;;;;;;15.70;99.90;;;;;;5067885;28;19931;-73
2021/10/15 14:15:27;;;;;;;;;;;15.70;99.90;;;;;;5064144;28;19925;-71
2021/10/15 14:17:59;;;;;;;;;;;15.80;99.90;;;;;;5056320;28;19924;-71
2021/10/15 14:20:26;;;;;;;;;;;15.80;99.90;;;;;;5073605;28;19924;-72
2021/10/15 14:22:58;;;;;;;;;;;15.80;99.90;;;;;;5072876;28;19929;-72
2021/10/15 14:25:29;;;;;;;;;;;15.80;99.90;;;;;;5072190;28;20379;-72
2021/10/15 14:28:01;;;;;;;;;;;15.90;99.90;;;;;;5072590;28;20011;-72
2021/10/15 14:30:33;;;;;;;;;;;15.90;99.90;;;;;;5073970;28;19998;-72
2021/10/15 14:33:00;;;;;;;;;;;15.90;99.90;;;;;;5063830;28;19947;-72
2021/10/15 14:35:32;;;;;;;;;;;16.00;99.90;;;;;;5064536;28;20279;-72
2021/10/15 14:38:04;;;;;;;;;;;16.00;99.90;;;;;;5070617;28;19929;-71
2021/10/15 14:40:37;;;;;;;;;;;15.90;99.90;;;;;;5070456;28;19924;-71
2021/10/15 14:43:09;;;;;;;;;;;15.80;99.90;;;;;;5073176;28;19932;-70
2021/10/15 14:45:42;;;;;;;;;;;15.70;99.90;;;;;;5073234;28;19925;-71
2021/10/15 14:48:09;;;;;;;;;;;15.60;99.90;;;;;;5073307;28;20035;-71
2021/10/15 14:50:41;;;;;;;;;;;15.40;99.90;;;;;;5069546;28;19931;-71
2021/10/15 14:53:12;;;;;;;;;;;15.40;99.90;;;;;;5060545;28;19925;-71
2021/10/15 14:55:39;;;;;;;;;;;15.40;99.90;;;;;;5072451;28;20436;-71
2021/10/15 14:58:07;;;;;;;;;;;15.40;99.90;;;;;;5089005;28;19967;-71
2021/10/15 15:00:34;;;;;;;;;;;15.40;99.90;;;;;;5091513;28;19935;-70
2021/10/15 15:03:02;;;;;;;;;;;15.30;99.90;;;;;;5090164;28;19931;-71
2021/10/15 15:05:29;;;;;;;;;;;15.30;99.90;;;;;;5090659;28;19928;-71
2021/10/15 15:07:55;;;;;;;;;;;15.20;99.90;;;;;;5090951;28;20504;-71
2021/10/15 15:10:22;;;;;;;;;;;15.10;99.90;;;;;;5091106;28;19924;-71
2021/10/15 15:12:49;;;;;;;;;;;15.00;99.90;;;;;;5089703;28;20015;-71
2021/10/15 15:15:21;;;;;;;;;;;14.90;99.90;;;;;;5109208;27;20109;-72
2021/10/15 15:18:00;;;;;;;;;;;14.90;99.90;;;;;;5092105;28;19924;-71